createdAt,value
2019-03-10T00:02:27.879Z,4.20
2019-03-10T00:05:31.251Z,4.30
2019-03-10T00:08:34.585Z,4.40
2019-03-10T00:11:37.744Z,4.30
2019-03-10T00:14:42.003Z,4.40
2019-03-10T00:17:45.060Z,4.40
2019-03-10T00:20:48.151Z,4.40
2019-03-10T00:23:51.243Z,4.50
2019-03-10T00:26:54.340Z,4.50
2019-03-10T00:29:57.426Z,4.50
2019-03-10T00:33:00.520Z,4.50
2019-03-10T00:36:03.716Z,4.50
2019-03-10T00:39:53.652Z,4.50
2019-03-10T00:43:38.012Z,4.60
2019-03-10T00:47:18.584Z,4.70
2019-03-10T00:59:51.777Z,4.60
2019-03-10T01:02:54.991Z,4.60
2019-03-10T01:05:58.225Z,4.60
2019-03-10T01:09:01.379Z,4.60
2019-03-10T01:12:06.419Z,4.60
2019-03-10T01:15:09.896Z,4.60
2019-03-10T01:18:14.211Z,4.60
2019-03-10T01:21:18.404Z,4.40
2019-03-10T01:24:21.552Z,4.40
2019-03-10T01:27:24.756Z,4.30
2019-03-10T01:30:31.469Z,4.30
2019-03-10T01:33:46.199Z,4.30
2019-03-10T01:36:49.423Z,4.30
2019-03-10T01:39:52.489Z,4.30
2019-03-10T01:42:55.679Z,4.30
2019-03-10T01:45:58.878Z,4.30
2019-03-10T01:49:02.073Z,4.40
2019-03-10T01:52:05.195Z,4.50
2019-03-10T01:55:08.965Z,4.50
2019-03-10T01:58:12.268Z,4.60
2019-03-10T02:01:15.460Z,4.60
2019-03-10T02:04:18.721Z,4.50
2019-03-10T02:07:21.944Z,4.50
2019-03-10T02:10:25.105Z,4.40
2019-03-10T02:13:28.204Z,4.30
2019-03-10T02:16:31.496Z,4.20
2019-03-10T02:19:34.697Z,4.20
2019-03-10T02:22:37.788Z,4.20
2019-03-10T02:25:40.880Z,4.10
2019-03-10T02:28:43.977Z,4.10
2019-03-10T02:31:48.097Z,4.00
2019-03-10T02:34:52.415Z,4.10
2019-03-10T02:37:55.507Z,4.00
2019-03-10T02:40:58.609Z,4.10
2019-03-10T02:44:01.941Z,4.10
2019-03-10T02:47:05.193Z,4.20
2019-03-10T02:50:08.730Z,4.10
2019-03-10T02:53:11.848Z,4.20
2019-03-10T02:56:14.981Z,4.10
2019-03-10T02:59:18.177Z,4.20
2019-03-10T03:02:21.408Z,4.20
2019-03-10T03:05:24.500Z,4.20
2019-03-10T03:08:27.572Z,4.20
2019-03-10T03:11:30.788Z,4.30
2019-03-10T03:14:33.840Z,4.30
2019-03-10T03:17:37.046Z,4.40
2019-03-10T03:20:40.281Z,4.40
2019-03-10T03:23:43.430Z,4.40
2019-03-10T03:26:47.588Z,4.30
2019-03-10T03:29:50.781Z,4.30
2019-03-10T03:32:54.121Z,4.30
2019-03-10T03:36:00.937Z,4.30
2019-03-10T03:39:16.284Z,4.20
2019-03-10T03:42:19.633Z,4.20
2019-03-10T03:45:22.797Z,4.20
2019-03-10T03:48:25.890Z,4.10
2019-03-10T03:51:29.011Z,4.10
2019-03-10T03:54:32.076Z,4.10
2019-03-10T03:57:36.394Z,4.10
2019-03-10T04:00:40.587Z,4.10
2019-03-10T04:03:43.708Z,4.10
2019-03-10T04:06:46.836Z,4.10
2019-03-10T04:09:49.898Z,4.20
2019-03-10T04:12:53.121Z,4.20
2019-03-10T04:15:56.172Z,4.20
2019-03-10T04:18:59.301Z,4.20
2019-03-10T04:22:02.506Z,4.20
2019-03-10T04:25:05.760Z,4.30
2019-03-10T04:28:08.987Z,4.30
2019-03-10T04:31:12.256Z,4.30
2019-03-10T04:34:15.348Z,4.40
2019-03-10T04:37:18.483Z,4.30
2019-03-10T04:40:21.532Z,4.30
2019-03-10T04:43:24.663Z,4.20
2019-03-10T04:46:27.720Z,4.20
2019-03-10T04:49:30.920Z,4.20
2019-03-10T04:52:34.048Z,4.20
2019-03-10T04:55:57.251Z,4.10
2019-03-10T04:59:00.367Z,4.10
2019-03-10T05:02:03.560Z,4.10
2019-03-10T05:05:06.856Z,4.20
2019-03-10T05:08:09.982Z,4.10
2019-03-10T05:11:13.048Z,4.10
2019-03-10T05:14:16.227Z,4.20
2019-03-10T05:17:19.532Z,4.20
2019-03-10T05:20:22.656Z,4.10
2019-03-10T05:23:34.252Z,4.00
2019-03-10T05:26:37.312Z,4.10
2019-03-10T05:29:40.513Z,4.00
2019-03-10T05:32:43.740Z,4.00
2019-03-10T05:35:46.799Z,4.10
2019-03-10T05:38:49.887Z,4.00
2019-03-10T05:41:52.977Z,4.00
2019-03-10T05:44:56.075Z,4.00
2019-03-10T05:47:59.164Z,4.10
2019-03-10T05:51:02.362Z,4.20
2019-03-10T05:54:05.483Z,4.20
2019-03-10T05:57:08.548Z,4.20
2019-03-10T06:00:11.944Z,4.20
2019-03-10T06:03:15.135Z,4.20
2019-03-10T06:06:18.233Z,4.20
2019-03-10T06:09:21.333Z,4.30
2019-03-10T06:12:24.519Z,4.30
2019-03-10T06:15:27.650Z,4.30
2019-03-10T06:18:30.703Z,4.30
2019-03-10T06:21:33.803Z,4.40
2019-03-10T06:24:36.896Z,4.40
2019-03-10T06:27:40.080Z,4.40
2019-03-10T06:30:43.287Z,4.50
2019-03-10T06:33:46.371Z,4.60
2019-03-10T06:36:49.605Z,4.60
2019-03-10T06:39:52.813Z,4.60
2019-03-10T06:42:55.964Z,4.60
2019-03-10T06:45:59.189Z,4.70
2019-03-10T06:49:03.377Z,4.70
2019-03-10T06:52:06.508Z,4.70
2019-03-10T06:55:09.799Z,4.80
2019-03-10T06:58:12.858Z,4.90
2019-03-10T07:01:15.993Z,5.00
2019-03-10T07:04:19.040Z,5.20
2019-03-10T07:07:22.140Z,5.20
2019-03-10T07:10:25.271Z,5.30
2019-03-10T07:13:28.319Z,5.40
2019-03-10T07:16:31.545Z,5.40
2019-03-10T07:19:34.612Z,5.40
2019-03-10T07:22:37.807Z,5.50
2019-03-10T07:25:41.039Z,5.60
2019-03-10T07:29:03.638Z,5.60
2019-03-10T07:32:16.204Z,5.60
2019-03-10T07:35:38.818Z,5.60
2019-03-10T07:39:01.393Z,5.60
2019-03-10T07:42:26.711Z,5.60
2019-03-10T07:45:42.780Z,5.90
2019-03-10T07:49:14.431Z,6.10
2019-03-10T07:52:23.909Z,6.20
2019-03-10T07:55:58.238Z,6.20
2019-03-10T07:59:11.639Z,6.20
2019-03-10T08:02:32.872Z,6.40
2019-03-10T08:05:54.304Z,6.70
2019-03-10T08:09:15.620Z,7.10
2019-03-10T08:12:36.153Z,7.00
2019-03-10T08:16:17.040Z,7.00
2019-03-10T08:19:46.729Z,7.00
2019-03-10T08:22:59.757Z,6.80
2019-03-10T08:26:18.065Z,6.60
2019-03-10T08:29:40.596Z,6.40
2019-03-10T08:33:02.992Z,6.40
2019-03-10T08:36:28.373Z,6.40
2019-03-10T08:40:09.159Z,6.50
2019-03-10T08:43:30.332Z,6.50
2019-03-10T08:46:44.212Z,6.90
2019-03-10T08:50:00.960Z,7.10
2019-03-10T08:53:17.268Z,7.20
2019-03-10T08:56:51.706Z,7.50
2019-03-10T09:00:10.748Z,7.80
2019-03-10T09:03:33.352Z,7.90
2019-03-10T09:06:54.352Z,8.00
2019-03-10T09:10:25.816Z,8.20
2019-03-10T09:13:46.752Z,8.30
2019-03-10T09:17:05.309Z,8.20
2019-03-10T09:20:36.904Z,8.00
2019-03-10T09:23:52.864Z,7.80
2019-03-10T09:27:11.013Z,7.70
2019-03-10T09:30:32.190Z,7.80
2019-03-10T09:33:53.805Z,7.80
2019-03-10T09:37:09.657Z,8.10
2019-03-10T09:40:21.032Z,8.00
2019-03-10T09:43:58.845Z,8.20
2019-03-10T09:47:07.769Z,8.30
2019-03-10T09:50:46.976Z,8.10
2019-03-10T09:54:08.263Z,8.20
2019-03-10T09:57:42.882Z,8.40
2019-03-10T10:01:05.321Z,8.30
2019-03-10T10:04:30.084Z,8.50
2019-03-10T10:07:41.424Z,8.50
2019-03-10T10:11:06.554Z,8.70
2019-03-10T10:14:34.921Z,8.80
2019-03-10T10:17:57.455Z,8.40
2019-03-10T10:21:18.840Z,8.20
2019-03-10T10:24:47.379Z,8.10
2019-03-10T10:28:18.804Z,7.90
2019-03-10T10:31:40.048Z,8.20
2019-03-10T10:35:01.380Z,8.40
2019-03-10T10:38:19.015Z,8.40
2019-03-10T10:41:33.331Z,8.40
2019-03-10T10:44:58.624Z,8.30
2019-03-10T10:48:10.647Z,8.30
2019-03-10T10:51:39.107Z,8.50
2019-03-10T10:54:58.454Z,8.70
2019-03-10T10:58:21.049Z,8.70
2019-03-10T11:01:43.623Z,8.90
2019-03-10T11:05:00.460Z,9.00
2019-03-10T11:08:32.418Z,8.70
2019-03-10T11:11:54.963Z,8.50
2019-03-10T11:15:09.949Z,8.90
2019-03-10T11:18:21.093Z,8.90
2019-03-10T11:21:55.465Z,8.70
2019-03-10T11:25:03.561Z,8.90
2019-03-10T11:28:16.655Z,8.90
2019-03-10T11:31:28.800Z,9.40
2019-03-10T11:34:51.453Z,9.40
2019-03-10T11:38:16.816Z,9.50
2019-03-10T11:41:33.786Z,9.30
2019-03-10T11:44:51.792Z,9.10
2019-03-10T11:48:20.513Z,8.90
2019-03-10T11:51:37.230Z,8.80
2019-03-10T11:55:05.559Z,9.10
2019-03-10T11:58:17.575Z,9.10
2019-03-10T12:01:38.523Z,8.60
2019-03-10T12:05:03.895Z,8.30
2019-03-10T12:08:38.671Z,8.10
2019-03-10T12:11:41.844Z,8.30
2019-03-10T12:14:45.035Z,8.40
2019-03-10T12:17:48.331Z,8.40
2019-03-10T12:20:51.576Z,8.50
2019-03-10T12:23:54.834Z,8.50
2019-03-10T12:26:58.020Z,8.40
2019-03-10T12:30:01.324Z,8.40
2019-03-10T12:33:04.657Z,7.90
2019-03-10T12:36:07.803Z,7.30
2019-03-10T12:39:11.012Z,7.00
2019-03-10T12:42:14.486Z,6.70
2019-03-10T12:45:17.803Z,6.80
2019-03-10T12:48:21.042Z,6.80
2019-03-10T12:51:24.228Z,6.70
2019-03-10T12:54:27.395Z,6.70
2019-03-10T12:57:30.579Z,6.70
2019-03-10T13:00:33.783Z,6.90
2019-03-10T13:03:37.159Z,7.10
2019-03-10T13:06:40.412Z,7.20
2019-03-10T13:09:43.781Z,7.40
2019-03-10T13:12:46.968Z,7.40
2019-03-10T13:15:50.270Z,7.50
2019-03-10T13:18:53.461Z,7.40
2019-03-10T13:21:56.765Z,7.10
2019-03-10T13:25:00.003Z,6.90
2019-03-10T13:28:03.051Z,6.80
2019-03-10T13:31:06.144Z,6.90
2019-03-10T13:34:09.231Z,6.90
2019-03-10T13:37:12.504Z,7.00
2019-03-10T13:40:15.721Z,7.10
2019-03-10T13:43:18.920Z,7.20
2019-03-10T13:46:22.120Z,7.30
2019-03-10T13:49:25.519Z,7.40
2019-03-10T13:52:30.611Z,7.20
2019-03-10T13:55:33.895Z,6.90
2019-03-10T13:58:37.252Z,6.80
2019-03-10T14:01:40.452Z,6.80
2019-03-10T14:04:45.248Z,6.70
2019-03-10T14:07:48.363Z,6.70
2019-03-10T14:10:51.531Z,6.80
2019-03-10T14:13:54.752Z,6.90
2019-03-10T14:16:57.853Z,7.00
2019-03-10T14:20:01.008Z,7.10
2019-03-10T14:23:04.645Z,7.10
2019-03-10T14:26:07.704Z,7.20
2019-03-10T14:29:10.796Z,7.00
2019-03-10T14:32:14.231Z,6.70
2019-03-10T14:35:17.395Z,6.60
2019-03-10T14:38:20.619Z,6.50
2019-03-10T14:41:23.685Z,6.40
2019-03-10T14:44:26.878Z,6.40
2019-03-10T14:47:30.114Z,6.40
2019-03-10T14:50:34.848Z,6.40
2019-03-10T14:53:38.813Z,6.50
2019-03-10T14:56:42.008Z,6.90
2019-03-10T14:59:46.749Z,7.20
2019-03-10T15:02:49.986Z,7.50
2019-03-10T15:05:53.128Z,7.40
2019-03-10T15:08:56.273Z,7.00
2019-03-10T15:11:59.416Z,6.80
2019-03-10T15:15:02.621Z,6.70
2019-03-10T15:18:05.844Z,6.80
2019-03-10T15:21:08.995Z,6.80
2019-03-10T15:24:13.256Z,6.90
2019-03-10T15:27:23.360Z,6.80
2019-03-10T15:30:21.455Z,6.60
2019-03-10T15:33:24.583Z,6.40
2019-03-10T15:36:27.640Z,6.30
2019-03-10T15:39:30.872Z,6.20
2019-03-10T15:42:34.136Z,6.10
2019-03-10T15:45:37.232Z,6.10
2019-03-10T15:48:40.316Z,6.00
2019-03-10T15:51:43.419Z,6.00
2019-03-10T15:54:46.644Z,6.00
2019-03-10T15:57:50.832Z,5.90
2019-03-10T16:00:54.356Z,5.90
2019-03-10T16:04:01.472Z,5.90
2019-03-10T16:07:04.712Z,5.90
2019-03-10T16:10:08.636Z,5.80
2019-03-10T16:13:11.848Z,5.80
2019-03-10T16:16:15.016Z,5.70
2019-03-10T16:19:18.161Z,5.60
2019-03-10T16:22:21.308Z,5.60
2019-03-10T16:25:24.544Z,5.50
2019-03-10T16:28:27.722Z,5.50
2019-03-10T16:31:31.038Z,5.50
2019-03-10T16:34:34.297Z,5.40
2019-03-10T16:37:37.483Z,5.30
2019-03-10T16:40:40.931Z,5.20
2019-03-10T16:43:44.184Z,5.20
2019-03-10T16:46:47.382Z,5.20
2019-03-10T16:49:50.474Z,5.20
2019-03-10T16:52:55.251Z,5.10
2019-03-10T16:56:02.898Z,5.10
2019-03-10T16:59:03.432Z,5.00
2019-03-10T17:02:06.532Z,4.90
2019-03-10T17:05:09.935Z,4.80
2019-03-10T17:08:13.028Z,4.70
2019-03-10T17:11:17.311Z,4.60
2019-03-10T17:14:20.541Z,4.50
2019-03-10T17:17:23.769Z,4.50
2019-03-10T17:20:26.820Z,4.40
2019-03-10T17:23:30.021Z,4.40
2019-03-10T17:26:33.315Z,4.40
2019-03-10T17:29:36.413Z,4.40
2019-03-10T17:32:39.499Z,4.40
2019-03-10T17:35:43.830Z,4.40
2019-03-10T17:38:47.140Z,4.40
2019-03-10T17:41:50.415Z,4.40
2019-03-10T17:44:53.616Z,4.40
2019-03-10T17:47:56.909Z,4.40
2019-03-10T17:51:00.156Z,4.30
2019-03-10T17:54:03.499Z,4.30
2019-03-10T17:57:06.802Z,4.20
2019-03-10T18:00:11.463Z,4.20
2019-03-10T18:03:14.776Z,4.10
2019-03-10T18:06:17.862Z,4.00
2019-03-10T18:09:21.272Z,4.00
2019-03-10T18:12:26.116Z,4.00
2019-03-10T18:15:29.500Z,4.00
2019-03-10T18:18:32.858Z,3.90
2019-03-10T18:21:36.194Z,3.90
2019-03-10T18:24:39.349Z,3.90
2019-03-10T18:27:42.648Z,3.80
2019-03-10T18:30:45.881Z,3.80
2019-03-10T18:33:49.139Z,3.70
2019-03-10T18:36:52.576Z,3.70
2019-03-10T18:39:55.740Z,3.60
2019-03-10T18:42:58.931Z,3.30
2019-03-10T18:46:02.359Z,3.20
2019-03-10T18:49:46.995Z,3.10
2019-03-10T18:52:50.438Z,3.10
2019-03-10T18:55:53.796Z,3.00
2019-03-10T18:58:57.156Z,2.90
2019-03-10T19:02:00.424Z,2.80
2019-03-10T19:05:03.593Z,2.70
2019-03-10T19:08:07.842Z,2.50
2019-03-10T19:11:11.004Z,2.40
2019-03-10T19:14:14.400Z,2.30
2019-03-10T19:17:17.733Z,2.20
2019-03-10T19:20:20.996Z,2.20
2019-03-10T19:23:24.228Z,2.10
2019-03-10T19:26:27.484Z,2.10
2019-03-10T19:29:30.888Z,2.10
2019-03-10T19:32:34.123Z,2.10
2019-03-10T19:35:37.284Z,2.00
2019-03-10T19:38:40.419Z,2.00
2019-03-10T19:41:43.931Z,2.00
2019-03-10T19:44:47.176Z,2.00
2019-03-10T19:47:50.406Z,1.90
2019-03-10T19:50:53.564Z,1.90
2019-03-10T19:53:56.897Z,1.80
2019-03-10T19:57:00.200Z,1.70
2019-03-10T20:00:04.581Z,1.50
2019-03-10T20:03:09.639Z,1.50
2019-03-10T20:06:12.812Z,1.50
2019-03-10T20:09:17.120Z,1.50
2019-03-10T20:12:20.557Z,1.50
2019-03-10T20:15:24.060Z,1.50
2019-03-10T20:18:27.355Z,1.40
2019-03-10T20:21:30.615Z,1.40
2019-03-10T20:24:33.911Z,1.50
2019-03-10T20:27:37.143Z,1.50
2019-03-10T20:30:40.309Z,1.60
2019-03-10T20:33:43.640Z,1.70
2019-03-10T20:36:46.813Z,1.70
2019-03-10T20:39:49.995Z,1.70
2019-03-10T20:42:53.236Z,1.80
2019-03-10T20:45:56.421Z,1.80
2019-03-10T20:48:59.578Z,1.90
2019-03-10T20:52:02.776Z,1.90
2019-03-10T20:55:06.076Z,1.90
2019-03-10T20:58:10.036Z,1.90
2019-03-10T21:01:13.284Z,2.00
2019-03-10T21:04:16.476Z,2.00
2019-03-10T21:07:19.769Z,2.00
2019-03-10T21:10:24.106Z,2.10
2019-03-10T21:13:27.323Z,2.20
2019-03-10T21:16:30.897Z,2.20
2019-03-10T21:19:33.988Z,2.30
2019-03-10T21:22:37.083Z,2.30
2019-03-10T21:25:40.172Z,2.40
2019-03-10T21:28:43.298Z,2.40
2019-03-10T21:31:46.559Z,2.50
2019-03-10T21:34:49.763Z,2.50
2019-03-10T21:37:53.055Z,2.50
2019-03-10T21:40:56.248Z,2.50
2019-03-10T21:43:59.396Z,2.60
2019-03-10T21:47:02.745Z,2.60
2019-03-10T21:50:06.732Z,2.60
2019-03-10T21:53:10.173Z,2.70
2019-03-10T21:56:13.507Z,2.70
2019-03-10T21:59:16.886Z,2.70
2019-03-10T22:02:19.947Z,2.70
2019-03-10T22:05:23.252Z,2.80
2019-03-10T22:08:26.447Z,2.70
2019-03-10T22:11:29.640Z,2.70
2019-03-10T22:14:32.935Z,2.70
2019-03-10T22:17:36.127Z,2.70
2019-03-10T22:20:39.463Z,2.70
2019-03-10T22:23:42.719Z,2.60
2019-03-10T22:26:45.853Z,2.60
2019-03-10T22:29:49.040Z,2.70
2019-03-10T22:32:52.211Z,2.60
2019-03-10T22:35:55.333Z,2.70
2019-03-10T22:38:58.398Z,2.70
2019-03-10T22:42:02.643Z,2.70
2019-03-10T22:45:06.488Z,2.70
2019-03-10T22:48:09.513Z,2.70
2019-03-10T22:51:12.643Z,2.70
2019-03-10T22:54:15.805Z,2.80
2019-03-10T22:57:18.896Z,2.80
2019-03-10T23:00:22.829Z,2.80
2019-03-10T23:03:27.943Z,2.70
2019-03-10T23:06:31.076Z,2.70
2019-03-10T23:09:35.365Z,2.70
2019-03-10T23:12:38.664Z,2.80
2019-03-10T23:15:41.992Z,2.80
2019-03-10T23:18:46.277Z,2.80
2019-03-10T23:21:49.504Z,2.80
2019-03-10T23:24:52.823Z,2.90
2019-03-10T23:27:56.267Z,2.90
2019-03-10T23:30:59.620Z,3.00
2019-03-10T23:34:02.777Z,3.00
2019-03-10T23:37:05.900Z,3.00
2019-03-10T23:40:09.468Z,3.00
2019-03-10T23:43:13.780Z,3.00
2019-03-10T23:46:17.016Z,3.10
2019-03-10T23:49:20.168Z,3.00
2019-03-10T23:52:23.303Z,3.10
2019-03-10T23:55:26.360Z,3.10
2019-03-10T23:58:29.660Z,3.10
